sensor_id;sensor_type;location;lat;lon;timestamp;P1;durP1;ratioP1;P2;durP2;ratioP2
25279;SDS011;13225;47.804;12.116;2023-06-14T00:00:17;7.40;;;4.40;;
25279;SDS011;13225;47.804;12.116;2023-06-14T00:02:43;7.68;;;4.32;;
25279;SDS011;13225;47.804;12.116;2023-06-14T00:05:09;5.88;;;4.03;;
25279;SDS011;13225;47.804;12.116;2023-06-14T00:07:40;7.65;;;4.75;;
25279;SDS011;13225;47.804;12.116;2023-06-14T00:10:13;7.35;;;5.07;;
25279;SDS011;13225;47.804;12.116;2023-06-14T00:12:39;6.72;;;4.22;;
25279;SDS011;13225;47.804;12.116;2023-06-14T00:15:06;7.22;;;4.68;;
25279;SDS011;13225;47.804;12.116;2023-06-14T00:17:34;8.55;;;4.40;;
25279;SDS011;13225;47.804;12.116;2023-06-14T00:20:01;6.60;;;4.45;;
25279;SDS011;13225;47.804;12.116;2023-06-14T00:22:30;7.85;;;4.53;;
25279;SDS011;13225;47.804;12.116;2023-06-14T00:24:56;8.48;;;4.80;;
25279;SDS011;13225;47.804;12.116;2023-06-14T00:27:22;9.23;;;4.65;;
25279;SDS011;13225;47.804;12.116;2023-06-14T00:29:47;10.25;;;5.10;;
25279;SDS011;13225;47.804;12.116;2023-06-14T00:32:13;6.18;;;4.60;;
25279;SDS011;13225;47.804;12.116;2023-06-14T00:34:38;7.45;;;4.28;;
25279;SDS011;13225;47.804;12.116;2023-06-14T00:37:04;6.57;;;4.45;;
25279;SDS011;13225;47.804;12.116;2023-06-14T00:39:30;5.75;;;4.28;;
25279;SDS011;13225;47.804;12.116;2023-06-14T00:41:55;7.45;;;4.60;;
25279;SDS011;13225;47.804;12.116;2023-06-14T00:44:21;6.28;;;4.32;;
25279;SDS011;13225;47.804;12.116;2023-06-14T00:46:47;7.40;;;4.35;;
25279;SDS011;13225;47.804;12.116;2023-06-14T00:49:14;7.38;;;4.28;;
25279;SDS011;13225;47.804;12.116;2023-06-14T00:51:41;8.15;;;4.10;;
25279;SDS011;13225;47.804;12.116;2023-06-14T00:54:07;7.30;;;4.82;;
25279;SDS011;13225;47.804;12.116;2023-06-14T00:56:35;6.80;;;4.38;;
25279;SDS011;13225;47.804;12.116;2023-06-14T00:59:01;8.23;;;4.38;;
25279;SDS011;13225;47.804;12.116;2023-06-14T01:01:28;8.60;;;5.05;;
25279;SDS011;13225;47.804;12.116;2023-06-14T01:03:57;8.57;;;5.15;;
25279;SDS011;13225;47.804;12.116;2023-06-14T01:06:27;10.38;;;5.20;;
25279;SDS011;13225;47.804;12.116;2023-06-14T01:12:07;7.53;;;4.68;;
25279;SDS011;13225;47.804;12.116;2023-06-14T01:14:44;8.13;;;5.00;;
25279;SDS011;13225;47.804;12.116;2023-06-14T01:17:12;7.85;;;4.55;;
25279;SDS011;13225;47.804;12.116;2023-06-14T01:19:44;6.18;;;4.50;;
25279;SDS011;13225;47.804;12.116;2023-06-14T01:22:10;6.00;;;4.50;;
25279;SDS011;13225;47.804;12.116;2023-06-14T01:24:36;8.77;;;4.50;;
25279;SDS011;13225;47.804;12.116;2023-06-14T01:27:04;7.10;;;4.53;;
25279;SDS011;13225;47.804;12.116;2023-06-14T01:29:30;8.07;;;4.70;;
25279;SDS011;13225;47.804;12.116;2023-06-14T01:32:01;7.53;;;4.90;;
25279;SDS011;13225;47.804;12.116;2023-06-14T01:34:27;6.65;;;4.57;;
25279;SDS011;13225;47.804;12.116;2023-06-14T01:36:53;7.57;;;4.78;;
25279;SDS011;13225;47.804;12.116;2023-06-14T01:39:22;7.18;;;4.85;;
25279;SDS011;13225;47.804;12.116;2023-06-14T01:41:48;6.38;;;4.70;;
25279;SDS011;13225;47.804;12.116;2023-06-14T01:44:16;6.47;;;4.72;;
25279;SDS011;13225;47.804;12.116;2023-06-14T01:46:43;10.45;;;4.55;;
25279;SDS011;13225;47.804;12.116;2023-06-14T01:49:10;8.18;;;4.38;;
25279;SDS011;13225;47.804;12.116;2023-06-14T01:51:36;9.52;;;3.88;;
25279;SDS011;13225;47.804;12.116;2023-06-14T01:54:01;8.45;;;4.22;;
25279;SDS011;13225;47.804;12.116;2023-06-14T01:56:27;6.68;;;4.47;;
25279;SDS011;13225;47.804;12.116;2023-06-14T01:58:53;6.63;;;4.40;;
25279;SDS011;13225;47.804;12.116;2023-06-14T02:01:18;7.38;;;4.70;;
25279;SDS011;13225;47.804;12.116;2023-06-14T02:03:46;5.40;;;4.25;;
25279;SDS011;13225;47.804;12.116;2023-06-14T02:06:14;8.75;;;5.22;;
25279;SDS011;13225;47.804;12.116;2023-06-14T02:08:40;7.40;;;4.25;;
25279;SDS011;13225;47.804;12.116;2023-06-14T02:11:07;7.28;;;4.53;;
25279;SDS011;13225;47.804;12.116;2023-06-14T02:13:33;7.68;;;4.30;;
25279;SDS011;13225;47.804;12.116;2023-06-14T02:15:59;7.80;;;4.90;;
25279;SDS011;13225;47.804;12.116;2023-06-14T02:18:25;7.93;;;4.88;;
25279;SDS011;13225;47.804;12.116;2023-06-14T02:20:51;8.15;;;4.82;;
25279;SDS011;13225;47.804;12.116;2023-06-14T02:23:17;6.63;;;4.55;;
25279;SDS011;13225;47.804;12.116;2023-06-14T02:25:42;6.13;;;4.80;;
25279;SDS011;13225;47.804;12.116;2023-06-14T02:28:09;6.38;;;4.75;;
25279;SDS011;13225;47.804;12.116;2023-06-14T02:30:35;8.02;;;4.82;;
25279;SDS011;13225;47.804;12.116;2023-06-14T02:33:01;9.35;;;4.50;;
25279;SDS011;13225;47.804;12.116;2023-06-14T02:35:28;9.70;;;5.18;;
25279;SDS011;13225;47.804;12.116;2023-06-14T02:37:54;7.57;;;5.00;;
25279;SDS011;13225;47.804;12.116;2023-06-14T02:40:20;9.68;;;5.18;;
25279;SDS011;13225;47.804;12.116;2023-06-14T02:42:46;8.82;;;4.63;;
25279;SDS011;13225;47.804;12.116;2023-06-14T02:45:11;7.78;;;4.80;;
25279;SDS011;13225;47.804;12.116;2023-06-14T02:47:37;7.82;;;4.90;;
25279;SDS011;13225;47.804;12.116;2023-06-14T02:50:03;7.97;;;5.00;;
25279;SDS011;13225;47.804;12.116;2023-06-14T02:52:28;7.72;;;5.05;;
25279;SDS011;13225;47.804;12.116;2023-06-14T02:54:54;10.10;;;5.20;;
25279;SDS011;13225;47.804;12.116;2023-06-14T02:57:20;9.10;;;5.13;;
25279;SDS011;13225;47.804;12.116;2023-06-14T02:59:46;7.05;;;4.30;;
25279;SDS011;13225;47.804;12.116;2023-06-14T03:02:12;9.02;;;4.60;;
25279;SDS011;13225;47.804;12.116;2023-06-14T03:04:38;10.35;;;4.78;;
25279;SDS011;13225;47.804;12.116;2023-06-14T03:07:03;8.30;;;4.68;;
25279;SDS011;13225;47.804;12.116;2023-06-14T03:09:39;9.85;;;4.47;;
25279;SDS011;13225;47.804;12.116;2023-06-14T03:12:05;9.02;;;4.70;;
25279;SDS011;13225;47.804;12.116;2023-06-14T03:14:37;7.60;;;4.47;;
25279;SDS011;13225;47.804;12.116;2023-06-14T03:17:03;9.35;;;4.43;;
25279;SDS011;13225;47.804;12.116;2023-06-14T03:19:29;7.82;;;4.78;;
25279;SDS011;13225;47.804;12.116;2023-06-14T03:21:55;8.05;;;4.25;;
25279;SDS011;13225;47.804;12.116;2023-06-14T03:24:22;8.48;;;5.22;;
25279;SDS011;13225;47.804;12.116;2023-06-14T03:26:49;7.45;;;4.40;;
25279;SDS011;13225;47.804;12.116;2023-06-14T03:29:14;8.90;;;4.97;;
25279;SDS011;13225;47.804;12.116;2023-06-14T03:31:55;7.60;;;4.95;;
25279;SDS011;13225;47.804;12.116;2023-06-14T03:34:25;8.23;;;4.55;;
25279;SDS011;13225;47.804;12.116;2023-06-14T03:36:51;12.90;;;4.90;;
25279;SDS011;13225;47.804;12.116;2023-06-14T03:39:17;9.85;;;5.47;;
25279;SDS011;13225;47.804;12.116;2023-06-14T03:41:43;8.52;;;5.00;;
25279;SDS011;13225;47.804;12.116;2023-06-14T03:44:08;9.52;;;4.20;;
25279;SDS011;13225;47.804;12.116;2023-06-14T03:46:34;7.15;;;4.22;;
25279;SDS011;13225;47.804;12.116;2023-06-14T03:48:59;5.45;;;4.10;;
25279;SDS011;13225;47.804;12.116;2023-06-14T03:51:25;8.75;;;4.32;;
25279;SDS011;13225;47.804;12.116;2023-06-14T03:53:51;7.75;;;4.68;;
25279;SDS011;13225;47.804;12.116;2023-06-14T03:56:16;7.40;;;4.15;;
25279;SDS011;13225;47.804;12.116;2023-06-14T03:58:42;6.55;;;3.90;;
25279;SDS011;13225;47.804;12.116;2023-06-14T04:01:07;4.90;;;3.75;;
25279;SDS011;13225;47.804;12.116;2023-06-14T04:03:33;6.15;;;3.78;;
25279;SDS011;13225;47.804;12.116;2023-06-14T04:05:58;6.53;;;4.00;;
25279;SDS011;13225;47.804;12.116;2023-06-14T04:08:25;8.63;;;4.00;;
25279;SDS011;13225;47.804;12.116;2023-06-14T04:10:50;12.57;;;4.15;;
25279;SDS011;13225;47.804;12.116;2023-06-14T04:13:16;8.40;;;4.03;;
25279;SDS011;13225;47.804;12.116;2023-06-14T04:15:42;5.97;;;4.10;;
25279;SDS011;13225;47.804;12.116;2023-06-14T04:18:08;4.85;;;3.80;;
25279;SDS011;13225;47.804;12.116;2023-06-14T04:20:34;4.70;;;3.50;;
25279;SDS011;13225;47.804;12.116;2023-06-14T04:23:11;5.75;;;3.47;;
25279;SDS011;13225;47.804;12.116;2023-06-14T04:25:42;7.85;;;3.70;;
25279;SDS011;13225;47.804;12.116;2023-06-14T04:28:10;5.78;;;3.38;;
25279;SDS011;13225;47.804;12.116;2023-06-14T04:30:36;4.55;;;3.33;;
25279;SDS011;13225;47.804;12.116;2023-06-14T04:33:04;8.00;;;3.70;;
25279;SDS011;13225;47.804;12.116;2023-06-14T04:35:31;9.05;;;5.10;;
25279;SDS011;13225;47.804;12.116;2023-06-14T04:37:57;9.93;;;5.20;;
25279;SDS011;13225;47.804;12.116;2023-06-14T04:40:24;6.22;;;3.92;;
25279;SDS011;13225;47.804;12.116;2023-06-14T04:42:49;7.53;;;3.80;;
25279;SDS011;13225;47.804;12.116;2023-06-14T04:45:16;5.00;;;3.53;;
25279;SDS011;13225;47.804;12.116;2023-06-14T04:47:41;5.45;;;3.55;;
25279;SDS011;13225;47.804;12.116;2023-06-14T04:50:09;5.55;;;3.53;;
25279;SDS011;13225;47.804;12.116;2023-06-14T04:52:36;6.47;;;3.63;;
25279;SDS011;13225;47.804;12.116;2023-06-14T04:55:02;4.55;;;3.50;;
25279;SDS011;13225;47.804;12.116;2023-06-14T04:57:28;11.50;;;4.15;;
25279;SDS011;13225;47.804;12.116;2023-06-14T04:59:53;8.65;;;3.40;;
25279;SDS011;13225;47.804;12.116;2023-06-14T05:02:23;5.50;;;3.47;;
25279;SDS011;13225;47.804;12.116;2023-06-14T05:04:49;4.82;;;3.45;;
25279;SDS011;13225;47.804;12.116;2023-06-14T05:07:15;7.88;;;3.42;;
25279;SDS011;13225;47.804;12.116;2023-06-14T05:09:41;9.68;;;3.10;;
25279;SDS011;13225;47.804;12.116;2023-06-14T05:12:07;5.43;;;3.50;;
25279;SDS011;13225;47.804;12.116;2023-06-14T05:14:33;6.07;;;3.75;;
25279;SDS011;13225;47.804;12.116;2023-06-14T05:16:59;5.85;;;3.78;;
25279;SDS011;13225;47.804;12.116;2023-06-14T05:19:25;9.77;;;4.10;;
25279;SDS011;13225;47.804;12.116;2023-06-14T05:21:51;6.43;;;4.07;;
25279;SDS011;13225;47.804;12.116;2023-06-14T05:24:18;7.93;;;4.15;;
25279;SDS011;13225;47.804;12.116;2023-06-14T05:26:43;5.30;;;4.00;;
25279;SDS011;13225;47.804;12.116;2023-06-14T05:29:09;4.78;;;3.72;;
25279;SDS011;13225;47.804;12.116;2023-06-14T05:31:34;8.88;;;4.15;;
25279;SDS011;13225;47.804;12.116;2023-06-14T05:34:00;5.43;;;4.10;;
25279;SDS011;13225;47.804;12.116;2023-06-14T05:36:26;7.43;;;4.25;;
25279;SDS011;13225;47.804;12.116;2023-06-14T05:38:52;7.65;;;4.30;;
25279;SDS011;13225;47.804;12.116;2023-06-14T05:41:28;8.32;;;4.60;;
25279;SDS011;13225;47.804;12.116;2023-06-14T05:43:54;6.65;;;4.20;;
25279;SDS011;13225;47.804;12.116;2023-06-14T05:46:21;5.95;;;3.95;;
25279;SDS011;13225;47.804;12.116;2023-06-14T05:48:49;8.20;;;4.50;;
25279;SDS011;13225;47.804;12.116;2023-06-14T05:51:15;4.05;;;3.60;;
25279;SDS011;13225;47.804;12.116;2023-06-14T05:53:44;6.20;;;3.72;;
25279;SDS011;13225;47.804;12.116;2023-06-14T05:56:13;7.40;;;4.00;;
25279;SDS011;13225;47.804;12.116;2023-06-14T05:58:39;5.00;;;3.70;;
25279;SDS011;13225;47.804;12.116;2023-06-14T06:01:05;7.07;;;4.30;;
25279;SDS011;13225;47.804;12.116;2023-06-14T06:03:31;9.20;;;3.95;;
25279;SDS011;13225;47.804;12.116;2023-06-14T06:05:57;5.80;;;3.65;;
25279;SDS011;13225;47.804;12.116;2023-06-14T06:08:23;5.50;;;3.58;;
25279;SDS011;13225;47.804;12.116;2023-06-14T06:10:49;6.43;;;3.80;;
25279;SDS011;13225;47.804;12.116;2023-06-14T06:13:15;4.90;;;3.35;;
25279;SDS011;13225;47.804;12.116;2023-06-14T06:15:41;7.35;;;3.60;;
25279;SDS011;13225;47.804;12.116;2023-06-14T06:18:06;6.60;;;3.63;;
25279;SDS011;13225;47.804;12.116;2023-06-14T06:20:32;4.15;;;3.30;;
25279;SDS011;13225;47.804;12.116;2023-06-14T06:22:58;4.65;;;3.60;;
25279;SDS011;13225;47.804;12.116;2023-06-14T06:25:24;8.00;;;3.50;;
25279;SDS011;13225;47.804;12.116;2023-06-14T06:27:51;6.47;;;3.80;;
25279;SDS011;13225;47.804;12.116;2023-06-14T06:30:17;5.13;;;3.67;;
25279;SDS011;13225;47.804;12.116;2023-06-14T06:32:43;10.80;;;3.90;;
25279;SDS011;13225;47.804;12.116;2023-06-14T06:35:08;7.78;;;4.00;;
25279;SDS011;13225;47.804;12.116;2023-06-14T06:37:36;4.80;;;3.20;;
25279;SDS011;13225;47.804;12.116;2023-06-14T06:40:02;6.00;;;3.55;;
25279;SDS011;13225;47.804;12.116;2023-06-14T06:42:30;6.70;;;3.50;;
25279;SDS011;13225;47.804;12.116;2023-06-14T06:44:56;6.60;;;3.42;;
25279;SDS011;13225;47.804;12.116;2023-06-14T06:47:22;6.90;;;3.50;;
25279;SDS011;13225;47.804;12.116;2023-06-14T06:49:47;4.78;;;3.20;;
25279;SDS011;13225;47.804;12.116;2023-06-14T06:52:13;5.28;;;3.40;;
25279;SDS011;13225;47.804;12.116;2023-06-14T06:54:39;5.88;;;3.80;;
25279;SDS011;13225;47.804;12.116;2023-06-14T06:57:04;5.30;;;3.70;;
25279;SDS011;13225;47.804;12.116;2023-06-14T06:59:31;5.20;;;3.45;;
25279;SDS011;13225;47.804;12.116;2023-06-14T07:01:57;7.20;;;3.47;;
25279;SDS011;13225;47.804;12.116;2023-06-14T07:04:23;7.30;;;3.25;;
25279;SDS011;13225;47.804;12.116;2023-06-14T07:06:48;3.92;;;3.13;;
25279;SDS011;13225;47.804;12.116;2023-06-14T07:09:14;5.43;;;3.42;;
25279;SDS011;13225;47.804;12.116;2023-06-14T07:11:41;6.35;;;3.70;;
25279;SDS011;13225;47.804;12.116;2023-06-14T07:14:08;4.50;;;3.33;;
25279;SDS011;13225;47.804;12.116;2023-06-14T07:16:33;6.70;;;3.60;;
25279;SDS011;13225;47.804;12.116;2023-06-14T07:18:59;5.63;;;3.45;;
25279;SDS011;13225;47.804;12.116;2023-06-14T07:21:25;5.70;;;3.83;;
25279;SDS011;13225;47.804;12.116;2023-06-14T07:23:52;5.72;;;3.92;;
25279;SDS011;13225;47.804;12.116;2023-06-14T07:26:18;6.75;;;3.50;;
25279;SDS011;13225;47.804;12.116;2023-06-14T07:28:44;6.30;;;3.53;;
25279;SDS011;13225;47.804;12.116;2023-06-14T07:31:13;6.20;;;3.60;;
25279;SDS011;13225;47.804;12.116;2023-06-14T07:33:40;7.20;;;4.30;;
25279;SDS011;13225;47.804;12.116;2023-06-14T07:36:06;6.32;;;3.67;;
25279;SDS011;13225;47.804;12.116;2023-06-14T07:38:32;4.90;;;3.65;;
25279;SDS011;13225;47.804;12.116;2023-06-14T07:40:57;4.43;;;3.45;;
25279;SDS011;13225;47.804;12.116;2023-06-14T07:43:23;5.82;;;3.75;;
25279;SDS011;13225;47.804;12.116;2023-06-14T07:45:48;6.00;;;3.53;;
25279;SDS011;13225;47.804;12.116;2023-06-14T07:48:14;4.07;;;3.47;;
25279;SDS011;13225;47.804;12.116;2023-06-14T07:50:40;5.55;;;3.75;;
25279;SDS011;13225;47.804;12.116;2023-06-14T07:53:06;8.45;;;3.90;;
25279;SDS011;13225;47.804;12.116;2023-06-14T07:55:31;5.38;;;3.80;;
25279;SDS011;13225;47.804;12.116;2023-06-14T07:57:57;6.20;;;4.35;;
25279;SDS011;13225;47.804;12.116;2023-06-14T08:00:23;6.88;;;4.00;;
25279;SDS011;13225;47.804;12.116;2023-06-14T08:02:49;6.10;;;4.22;;
25279;SDS011;13225;47.804;12.116;2023-06-14T08:05:17;6.57;;;4.10;;
25279;SDS011;13225;47.804;12.116;2023-06-14T08:07:42;9.98;;;4.28;;
25279;SDS011;13225;47.804;12.116;2023-06-14T08:10:08;7.38;;;3.72;;
25279;SDS011;13225;47.804;12.116;2023-06-14T08:12:34;5.88;;;3.17;;
25279;SDS011;13225;47.804;12.116;2023-06-14T08:15:00;4.97;;;3.67;;
25279;SDS011;13225;47.804;12.116;2023-06-14T08:17:25;4.80;;;3.58;;
25279;SDS011;13225;47.804;12.116;2023-06-14T08:19:51;5.57;;;3.63;;
25279;SDS011;13225;47.804;12.116;2023-06-14T08:22:19;6.95;;;3.78;;
25279;SDS011;13225;47.804;12.116;2023-06-14T08:24:46;6.30;;;3.45;;
25279;SDS011;13225;47.804;12.116;2023-06-14T08:27:12;4.90;;;3.58;;
25279;SDS011;13225;47.804;12.116;2023-06-14T08:29:38;5.93;;;3.30;;
25279;SDS011;13225;47.804;12.116;2023-06-14T08:32:05;4.82;;;3.28;;
25279;SDS011;13225;47.804;12.116;2023-06-14T08:34:31;4.35;;;3.35;;
25279;SDS011;13225;47.804;12.116;2023-06-14T08:36:57;6.43;;;3.33;;
25279;SDS011;13225;47.804;12.116;2023-06-14T08:39:22;4.43;;;3.45;;
25279;SDS011;13225;47.804;12.116;2023-06-14T08:41:48;4.38;;;3.13;;
25279;SDS011;13225;47.804;12.116;2023-06-14T08:44:15;4.45;;;3.20;;
25279;SDS011;13225;47.804;12.116;2023-06-14T08:46:41;4.65;;;3.10;;
25279;SDS011;13225;47.804;12.116;2023-06-14T08:49:08;4.20;;;3.00;;
25279;SDS011;13225;47.804;12.116;2023-06-14T08:51:37;4.22;;;2.80;;
25279;SDS011;13225;47.804;12.116;2023-06-14T08:54:03;5.22;;;3.15;;
25279;SDS011;13225;47.804;12.116;2023-06-14T08:56:29;7.32;;;3.10;;
25279;SDS011;13225;47.804;12.116;2023-06-14T08:58:57;4.55;;;2.88;;
25279;SDS011;13225;47.804;12.116;2023-06-14T09:01:26;4.13;;;2.63;;
25279;SDS011;13225;47.804;12.116;2023-06-14T09:03:52;4.95;;;2.90;;
25279;SDS011;13225;47.804;12.116;2023-06-14T09:06:19;3.50;;;3.20;;
25279;SDS011;13225;47.804;12.116;2023-06-14T09:08:48;5.65;;;3.35;;
25279;SDS011;13225;47.804;12.116;2023-06-14T09:11:14;6.30;;;3.42;;
25279;SDS011;13225;47.804;12.116;2023-06-14T09:13:43;5.07;;;3.00;;
25279;SDS011;13225;47.804;12.116;2023-06-14T09:16:09;4.18;;;2.53;;
25279;SDS011;13225;47.804;12.116;2023-06-14T09:18:39;4.00;;;2.97;;
25279;SDS011;13225;47.804;12.116;2023-06-14T09:21:08;2.95;;;2.65;;
25279;SDS011;13225;47.804;12.116;2023-06-14T09:23:38;6.47;;;3.03;;
25279;SDS011;13225;47.804;12.116;2023-06-14T09:26:09;7.95;;;3.22;;
25279;SDS011;13225;47.804;12.116;2023-06-14T09:28:45;6.40;;;2.83;;
25279;SDS011;13225;47.804;12.116;2023-06-14T09:31:18;6.38;;;3.22;;
25279;SDS011;13225;47.804;12.116;2023-06-14T09:36:14;6.20;;;2.88;;
25279;SDS011;13225;47.804;12.116;2023-06-14T09:38:52;4.32;;;2.53;;
25279;SDS011;13225;47.804;12.116;2023-06-14T09:41:35;4.45;;;3.38;;
25279;SDS011;13225;47.804;12.116;2023-06-14T09:44:02;4.57;;;3.25;;
25279;SDS011;13225;47.804;12.116;2023-06-14T09:46:29;5.20;;;2.70;;
25279;SDS011;13225;47.804;12.116;2023-06-14T09:48:55;4.70;;;3.28;;
25279;SDS011;13225;47.804;12.116;2023-06-14T09:51:22;4.57;;;3.38;;
25279;SDS011;13225;47.804;12.116;2023-06-14T09:53:48;4.05;;;2.25;;
25279;SDS011;13225;47.804;12.116;2023-06-14T09:56:37;5.15;;;3.10;;
25279;SDS011;13225;47.804;12.116;2023-06-14T09:59:06;4.85;;;3.20;;
25279;SDS011;13225;47.804;12.116;2023-06-14T10:01:35;4.82;;;3.10;;
25279;SDS011;13225;47.804;12.116;2023-06-14T10:04:05;5.65;;;3.40;;
25279;SDS011;13225;47.804;12.116;2023-06-14T10:06:31;3.50;;;3.10;;
25279;SDS011;13225;47.804;12.116;2023-06-14T10:09:02;4.05;;;3.05;;
25279;SDS011;13225;47.804;12.116;2023-06-14T10:11:31;3.67;;;2.90;;
25279;SDS011;13225;47.804;12.116;2023-06-14T10:13:57;4.95;;;2.97;;
25279;SDS011;13225;47.804;12.116;2023-06-14T10:16:29;3.47;;;2.85;;
25279;SDS011;13225;47.804;12.116;2023-06-14T10:24:41;2.40;;;2.05;;
25279;SDS011;13225;47.804;12.116;2023-06-14T10:27:08;3.53;;;2.53;;
25279;SDS011;13225;47.804;12.116;2023-06-14T10:32:17;5.95;;;3.25;;
25279;SDS011;13225;47.804;12.116;2023-06-14T10:34:44;4.70;;;3.33;;
25279;SDS011;13225;47.804;12.116;2023-06-14T10:37:11;3.47;;;3.00;;
25279;SDS011;13225;47.804;12.116;2023-06-14T10:39:38;4.85;;;3.10;;
25279;SDS011;13225;47.804;12.116;2023-06-14T10:42:06;3.67;;;2.75;;
25279;SDS011;13225;47.804;12.116;2023-06-14T10:44:33;4.60;;;2.90;;
25279;SDS011;13225;47.804;12.116;2023-06-14T10:47:05;2.63;;;2.15;;
25279;SDS011;13225;47.804;12.116;2023-06-14T10:52:11;4.32;;;3.20;;
25279;SDS011;13225;47.804;12.116;2023-06-14T10:57:34;4.00;;;3.00;;
25279;SDS011;13225;47.804;12.116;2023-06-14T11:00:01;6.13;;;3.38;;
25279;SDS011;13225;47.804;12.116;2023-06-14T11:05:28;4.90;;;3.20;;
25279;SDS011;13225;47.804;12.116;2023-06-14T11:13:04;4.20;;;3.20;;
25279;SDS011;13225;47.804;12.116;2023-06-14T11:15:31;7.63;;;3.13;;
25279;SDS011;13225;47.804;12.116;2023-06-14T11:18:01;8.35;;;2.50;;
25279;SDS011;13225;47.804;12.116;2023-06-14T11:20:35;6.78;;;3.30;;
25279;SDS011;13225;47.804;12.116;2023-06-14T11:23:01;3.72;;;2.47;;
25279;SDS011;13225;47.804;12.116;2023-06-14T11:25:27;6.22;;;2.92;;
25279;SDS011;13225;47.804;12.116;2023-06-14T11:27:53;5.80;;;3.40;;
25279;SDS011;13225;47.804;12.116;2023-06-14T11:30:19;4.57;;;3.22;;
25279;SDS011;13225;47.804;12.116;2023-06-14T11:32:48;3.90;;;3.15;;
25279;SDS011;13225;47.804;12.116;2023-06-14T11:35:15;4.75;;;2.63;;
25279;SDS011;13225;47.804;12.116;2023-06-14T11:37:42;4.93;;;2.88;;
25279;SDS011;13225;47.804;12.116;2023-06-14T11:40:09;4.82;;;3.50;;
25279;SDS011;13225;47.804;12.116;2023-06-14T11:42:36;4.03;;;3.33;;
25279;SDS011;13225;47.804;12.116;2023-06-14T11:45:03;3.92;;;3.47;;
25279;SDS011;13225;47.804;12.116;2023-06-14T11:47:32;1.90;;;1.35;;
25279;SDS011;13225;47.804;12.116;2023-06-14T11:50:02;4.07;;;3.33;;
25279;SDS011;13225;47.804;12.116;2023-06-14T11:52:28;4.28;;;3.30;;
25279;SDS011;13225;47.804;12.116;2023-06-14T11:54:54;3.78;;;2.83;;
25279;SDS011;13225;47.804;12.116;2023-06-14T11:57:20;4.68;;;3.00;;
25279;SDS011;13225;47.804;12.116;2023-06-14T11:59:46;3.75;;;3.20;;
25279;SDS011;13225;47.804;12.116;2023-06-14T12:02:15;3.35;;;3.00;;
25279;SDS011;13225;47.804;12.116;2023-06-14T12:04:41;4.80;;;3.20;;
25279;SDS011;13225;47.804;12.116;2023-06-14T12:07:11;5.47;;;2.90;;
25279;SDS011;13225;47.804;12.116;2023-06-14T12:09:39;4.38;;;3.08;;
25279;SDS011;13225;47.804;12.116;2023-06-14T12:12:04;3.22;;;2.92;;
25279;SDS011;13225;47.804;12.116;2023-06-14T12:14:31;4.97;;;2.90;;
25279;SDS011;13225;47.804;12.116;2023-06-14T12:17:03;6.85;;;2.80;;
25279;SDS011;13225;47.804;12.116;2023-06-14T12:19:32;4.05;;;3.10;;
25279;SDS011;13225;47.804;12.116;2023-06-14T12:22:01;5.00;;;3.28;;
25279;SDS011;13225;47.804;12.116;2023-06-14T12:24:30;4.65;;;2.47;;
25279;SDS011;13225;47.804;12.116;2023-06-14T12:26:57;3.30;;;2.72;;
25279;SDS011;13225;47.804;12.116;2023-06-14T12:29:28;6.10;;;3.28;;
25279;SDS011;13225;47.804;12.116;2023-06-14T12:31:54;4.90;;;3.10;;
25279;SDS011;13225;47.804;12.116;2023-06-14T12:34:21;4.38;;;2.63;;
25279;SDS011;13225;47.804;12.116;2023-06-14T12:36:51;5.10;;;3.22;;
25279;SDS011;13225;47.804;12.116;2023-06-14T12:39:20;5.38;;;3.58;;
25279;SDS011;13225;47.804;12.116;2023-06-14T12:41:47;4.40;;;2.85;;
25279;SDS011;13225;47.804;12.116;2023-06-14T12:44:13;3.33;;;3.03;;
25279;SDS011;13225;47.804;12.116;2023-06-14T12:46:40;5.10;;;3.05;;
25279;SDS011;13225;47.804;12.116;2023-06-14T12:49:08;3.50;;;3.20;;
25279;SDS011;13225;47.804;12.116;2023-06-14T12:51:34;4.93;;;2.97;;
25279;SDS011;13225;47.804;12.116;2023-06-14T12:54:00;5.25;;;3.17;;
25279;SDS011;13225;47.804;12.116;2023-06-14T12:56:25;4.63;;;2.95;;
25279;SDS011;13225;47.804;12.116;2023-06-14T12:58:51;3.35;;;2.92;;
25279;SDS011;13225;47.804;12.116;2023-06-14T13:01:17;3.70;;;2.80;;
25279;SDS011;13225;47.804;12.116;2023-06-14T13:03:43;5.97;;;3.25;;
25279;SDS011;13225;47.804;12.116;2023-06-14T13:06:08;3.20;;;2.90;;
25279;SDS011;13225;47.804;12.116;2023-06-14T13:08:34;4.75;;;2.88;;
25279;SDS011;13225;47.804;12.116;2023-06-14T13:11:00;4.53;;;3.30;;
25279;SDS011;13225;47.804;12.116;2023-06-14T13:13:25;6.18;;;3.47;;
25279;SDS011;13225;47.804;12.116;2023-06-14T13:15:51;3.28;;;2.75;;
25279;SDS011;13225;47.804;12.116;2023-06-14T13:18:17;3.45;;;2.65;;
25279;SDS011;13225;47.804;12.116;2023-06-14T13:20:42;3.90;;;2.80;;
25279;SDS011;13225;47.804;12.116;2023-06-14T13:23:08;4.22;;;2.92;;
25279;SDS011;13225;47.804;12.116;2023-06-14T13:25:35;4.18;;;3.28;;
25279;SDS011;13225;47.804;12.116;2023-06-14T13:28:01;4.20;;;2.90;;
25279;SDS011;13225;47.804;12.116;2023-06-14T13:30:27;3.97;;;2.95;;
25279;SDS011;13225;47.804;12.116;2023-06-14T13:32:53;5.05;;;2.90;;
25279;SDS011;13225;47.804;12.116;2023-06-14T13:35:18;3.13;;;2.42;;
25279;SDS011;13225;47.804;12.116;2023-06-14T13:37:44;3.15;;;2.67;;
25279;SDS011;13225;47.804;12.116;2023-06-14T13:40:10;3.40;;;3.10;;
25279;SDS011;13225;47.804;12.116;2023-06-14T13:42:36;3.22;;;2.63;;
25279;SDS011;13225;47.804;12.116;2023-06-14T13:45:02;4.28;;;3.00;;
25279;SDS011;13225;47.804;12.116;2023-06-14T13:47:29;4.93;;;3.67;;
25279;SDS011;13225;47.804;12.116;2023-06-14T13:49:56;4.43;;;2.88;;
25279;SDS011;13225;47.804;12.116;2023-06-14T13:52:21;3.55;;;3.10;;
25279;SDS011;13225;47.804;12.116;2023-06-14T13:54:47;5.03;;;3.00;;
25279;SDS011;13225;47.804;12.116;2023-06-14T13:57:13;4.00;;;2.67;;
25279;SDS011;13225;47.804;12.116;2023-06-14T13:59:40;3.13;;;2.83;;
25279;SDS011;13225;47.804;12.116;2023-06-14T14:02:06;3.58;;;2.92;;
25279;SDS011;13225;47.804;12.116;2023-06-14T14:04:33;3.55;;;2.88;;
25279;SDS011;13225;47.804;12.116;2023-06-14T14:07:00;3.35;;;3.05;;
25279;SDS011;13225;47.804;12.116;2023-06-14T14:09:26;3.47;;;3.00;;
25279;SDS011;13225;47.804;12.116;2023-06-14T14:11:51;3.80;;;2.72;;
25279;SDS011;13225;47.804;12.116;2023-06-14T14:14:17;3.38;;;2.90;;
25279;SDS011;13225;47.804;12.116;2023-06-14T14:16:43;5.07;;;3.22;;
25279;SDS011;13225;47.804;12.116;2023-06-14T14:19:09;3.17;;;2.78;;
25279;SDS011;13225;47.804;12.116;2023-06-14T14:21:34;4.30;;;3.00;;
25279;SDS011;13225;47.804;12.116;2023-06-14T14:24:00;3.88;;;3.00;;
25279;SDS011;13225;47.804;12.116;2023-06-14T14:26:26;4.07;;;2.97;;
25279;SDS011;13225;47.804;12.116;2023-06-14T14:28:52;3.95;;;2.92;;
25279;SDS011;13225;47.804;12.116;2023-06-14T14:31:17;2.40;;;2.20;;
25279;SDS011;13225;47.804;12.116;2023-06-14T14:33:43;4.07;;;3.08;;
25279;SDS011;13225;47.804;12.116;2023-06-14T14:36:09;3.85;;;2.78;;
25279;SDS011;13225;47.804;12.116;2023-06-14T14:38:35;3.30;;;2.63;;
25279;SDS011;13225;47.804;12.116;2023-06-14T14:41:00;3.28;;;2.90;;
25279;SDS011;13225;47.804;12.116;2023-06-14T14:43:26;5.43;;;2.50;;
25279;SDS011;13225;47.804;12.116;2023-06-14T14:45:52;3.30;;;2.83;;
25279;SDS011;13225;47.804;12.116;2023-06-14T14:48:17;4.15;;;2.40;;
25279;SDS011;13225;47.804;12.116;2023-06-14T14:50:43;3.50;;;3.20;;
25279;SDS011;13225;47.804;12.116;2023-06-14T14:53:08;4.95;;;3.40;;
25279;SDS011;13225;47.804;12.116;2023-06-14T14:55:34;4.10;;;3.17;;
25279;SDS011;13225;47.804;12.116;2023-06-14T14:58:02;4.35;;;3.00;;